KMDH Weather | Aviation | SIU

Home
Southern Illinois University

CONTACT

SIU.EDU

Aviation - Weather

College of Applied Sciences and Arts

KMDH Weather

NOTICE: Although all weather products are taken from the National Weather Service, this data should be used only as a supplement to a formal weather briefing.

Last Updated: Sunday, May 31st, 2020, 11:57 am
Information on this page is updated every 5 minutes.


METARS

KMDH 311652Z 10SM FEW055 25/12 A3027 RMK AO2 SLP247 T02500117

KMDH 311552Z VRB03KT 10SM CLR 23/13 A3028 RMK AO2 SLP249 T02330128

KMDH 311452Z VRB04KT 10SM CLR 22/13 A3028 RMK AO2 SLP250 T02220128 53010

KMWA 311645Z 00000KT 20SM SCT048 23/12 A3028

KMWA 311545Z 00000KT 20SM SKC 23/13 A3029

KMWA 311445Z 00000KT 20SM SKC 21/13 A3029

KCGI 311653Z 04005KT 10SM CLR 26/12 A3025 RMK AO2 SLP243 T02560117

KCGI 311553Z 06005KT 10SM CLR 24/13 A3026 RMK AO2 SLP244 T02440133

KCGI 311453Z 01004KT 10SM CLR 23/14 A3026 RMK AO2 SLP245 T02280144 53007

KSAR 311615Z AUTO 11003KT 10SM CLR 23/12 A3030 RMK AO2 T02310124

KSAR 311555Z AUTO 08005KT 10SM CLR 23/12 A3030 RMK AO2 T02300121

KSAR 311535Z AUTO 06004KT 10SM CLR 23/12 A3030 RMK AO2 T02250124

KSAR 311515Z AUTO 08005KT 10SM CLR 22/13 A3029 RMK AO2 T02200126

KSAR 311455Z AUTO 09004KT 10SM CLR 21/13 A3030 RMK AO2 T02130131

KSAR 311435Z AUTO 08005KT 10SM CLR 21/13 A3030 RMK AO2 T02100133

KSAR 311415Z AUTO 07003KT 10SM CLR 20/13 A3029 RMK AO2 T02020132

KFAM 311620Z AUTO 11005KT 10SM FEW001 23/12 A3030 RMK AO2

KFAM 311556Z AUTO 02003KT 10SM CLR 23/12 A3031 RMK AO2 SLP266 T02330117

KFAM 311456Z AUTO VRB05KT 10SM CLR 22/12 A3030 RMK AO2 SLP264 T02170122 51009

KMVN 311556Z AUTO 09005KT 10SM CLR 22/12 A3030 RMK AO2 SLP262 T02220122

KMVN 311456Z AUTO 11005KT 10SM CLR 21/12 A3030 RMK AO2 SLP262 T02110122 51013

KMVN 311424Z AUTO 09008KT 10SM FEW002 20/13 A3030 RMK AO2

KHSB 311635Z AUTO 14004KT 10SM CLR 23/12 A3029 RMK AO2 T02310122

KHSB 311615Z AUTO 12005KT 10SM CLR 23/13 A3029 RMK AO2 T02280125

KCIR 311635Z AUTO 07006KT 10SM CLR 24/11 A3026 RMK AO2 T02440111

KCIR 311615Z AUTO 11006KT 10SM CLR 24/12 A3026 RMK AO2 T02400120

KPAH 311653Z VRB04KT 10SM CLR 26/11 A3025 RMK AO2 SLP240 T02560106

KFAM 311620Z AUTO 11005KT 10SM FEW001 23/12 A3030 RMK AO2

KENL 311635Z AUTO 12004KT 10SM CLR 23/13 A3029 RMK AO2 T02290127

KENL 311615Z AUTO 09006KT 10SM CLR 23/13 A3029 RMK AO2 T02260130

KMTO 311653Z AUTO 09004KT 10SM CLR 22/07 A3031 RMK AO2 SLP261 T02170072

KFWC 311635Z AUTO 11004KT 10SM CLR 22/09 A3029 RMK AO1 T02180094

KFWC 311615Z AUTO 10005KT 10SM CLR 22/09 A3029 RMK AO1 T02190092

KCUL 311637Z AUTO 36005KT 10SM CLR 23/10 A3029 RMK AO2

KCUL 311617Z AUTO 36005KT 10SM CLR 23/10 A3029 RMK AO2

KCUL 311558Z AUTO 36004KT 10SM CLR 23/10 A3029 RMK AO2

KEVV 311654Z 10SM CLR 23/09 A3029 RMK AO2 SLP254 T02330089

KCEY 311615Z AUTO 05008KT 10SM CLR 23/11 A3026 RMK AO1

KALN 311650Z VRB05KT 10SM FEW250 23/13 A3029

KALN 311650Z VRB05KT 10SM FEW250 23/13 A3029

KCOU 311654Z 10SM CLR 23/11 A3030 RMK AO2 SLP253 T02330111

KAJG 311615Z AUTO 11010KT 10SM CLR 22/07 A3030 RMK AO2 T02150073

KM30 311635Z AUTO 02006KT 4SM HZ CLR A3027 RMK AO2

KM30 311615Z AUTO 00000KT 4SM HZ CLR A3027 RMK AO2

KDEC 311654Z 02007KT 350V060 10SM CLR 22/09 A3032 RMK AO2 SLP263 T02220094

KIJX 311615Z AUTO 09007KT 10SM CLR 22/09 A3031 RMK AO2 T02180092


TAFS

KEVV 311120Z 3112/0112 05006KT P6SM SKC

        FM312100 02005KT P6SM FEW250

        FM010200 VRB03KT P6SM SKC


Winds Aloft



Pilot Reports

No pilot reports found for area.



Area Forecast



Significant Weather

WAUS46 KKCI 311445 SFOT WA 311445 AIRMET TANGO UPDT 3 FOR TURB VALID UNTIL 312100 AIRMET TURB...CA ID MT WY NV UT CO AZ NM FROM 50WSW YXC TO 40NNE GGW TO 50WNW BFF TO 30SW DEN TO 40SSE DVC TO 50SW SJN TO 60NE BZA TO 50ESE EHF TO 30NNE SAC TO 30NW SLC TO 20E BOI TO 40NNW DNJ TO 50WSW YXC MOD TURB BLW FL180. CONDS CONTG BYD 21Z THRU 03Z. OTLK VALID 2100-0300Z...TURB WA OR ID MT WY UT CO BOUNDED BY 40NE HVR-70SSE MLS-30NW BFF-40ESE CYS-40S OCS-70SW MTU-30WSW DBS-70NNW DNJ-20NNE YKM-40SE YDC-40NE HVR MOD TURB BTN FL220 AND FL440. CONDS CONTG THRU 03Z.